Time;durP1;ratioP1;P1;durP2;ratioP2;P2;SDS_P1;SDS_P2;PMS_P1;PMS_P2;Temp;Humidity;BMP_temperature;BMP_pressure;BME280_temperature;BME280_humidity;BME280_pressure;Samples;Min_cycle;Max_cycle;Signal;HPM_P1;HPM_P2
2022/07/20 00:00:35;;;;;;;16.80;6.00;;;;;;;19.71;48.30;99405.81;106037;1273;107172;-64
2022/07/20 00:03:07;;;;;;;16.00;6.40;;;;;;;19.70;48.37;99406.27;106093;1274;97957;-64
2022/07/20 00:05:36;;;;;;;15.20;6.10;;;;;;;19.68;48.38;99409.13;106024;1273;97877;-65
2022/07/20 00:08:06;;;;;;;10.10;5.20;;;;;;;19.68;48.47;99403.84;106054;1274;111249;-63
2022/07/20 00:13:22;;;;;;;17.30;6.90;;;;;;;19.64;48.50;99403.33;106122;1273;107573;-63
2022/07/20 00:15:51;;;;;;;17.00;5.50;;;;;;;19.62;48.53;99401.92;106110;1273;97984;-64
2022/07/20 00:18:21;;;;;;;14.30;6.10;;;;;;;19.60;48.64;99405.34;106132;1273;98032;-65
2022/07/20 00:20:49;;;;;;;14.60;5.90;;;;;;;19.58;48.63;99401.60;106032;1273;112332;-64
2022/07/20 00:23:18;;;;;;;13.70;5.30;;;;;;;19.57;48.68;99401.54;106079;1273;97914;-64
2022/07/20 00:25:46;;;;;;;14.30;5.40;;;;;;;19.53;48.67;99399.56;106070;1274;108323;-64
2022/07/20 00:28:14;;;;;;;9.00;4.70;;;;;;;19.52;48.65;99402.80;106079;1274;97969;-63
2022/07/20 00:30:42;;;;;;;14.50;5.60;;;;;;;19.51;48.77;99402.36;106147;1274;97859;-64
2022/07/20 00:33:11;;;;;;;13.50;5.30;;;;;;;19.51;48.86;99399.66;106009;1274;111730;-66
2022/07/20 00:35:41;;;;;;;15.10;5.30;;;;;;;19.50;48.78;99400.59;106164;1273;97950;-64
2022/07/20 00:38:12;;;;;;;13.20;5.60;;;;;;;19.50;48.83;99398.30;106189;1274;107041;-65
2022/07/20 00:40:42;;;;;;;16.20;5.50;;;;;;;19.48;48.77;99397.02;106102;1274;97862;-65
2022/07/20 00:43:10;;;;;;;13.20;5.30;;;;;;;19.45;48.78;99395.55;106201;1274;97833;-66
2022/07/20 00:45:38;;;;;;;15.60;5.20;;;;;;;19.42;48.81;99392.26;106130;1274;112106;-65
2022/07/20 00:48:07;;;;;;;16.70;5.10;;;;;;;19.39;48.97;99393.69;106234;1274;97888;-66
2022/07/20 00:50:35;;;;;;;15.30;5.60;;;;;;;19.36;48.96;99392.40;106138;1273;108161;-66
2022/07/20 00:53:03;;;;;;;12.80;5.30;;;;;;;19.31;49.00;99391.20;106020;1274;97906;-64
2022/07/20 00:55:32;;;;;;;19.00;5.70;;;;;;;19.28;49.12;99390.91;106083;1273;97960;-65
2022/07/20 00:58:00;;;;;;;14.20;6.20;;;;;;;19.26;49.27;99389.28;106155;1273;111114;-64
2022/07/20 01:00:28;;;;;;;15.80;5.60;;;;;;;19.26;49.33;99392.31;106155;1274;95818;-65
2022/07/20 01:02:56;;;;;;;13.20;5.50;;;;;;;19.26;49.33;99389.86;106076;1274;108422;-65
2022/07/20 01:05:25;;;;;;;12.60;5.10;;;;;;;19.26;49.63;99390.92;106035;1273;97883;-63
2022/07/20 01:07:53;;;;;;;14.60;5.50;;;;;;;19.27;49.63;99391.54;106035;1273;95285;-64
2022/07/20 01:10:21;;;;;;;12.40;5.40;;;;;;;19.28;49.71;99390.11;106102;1274;112021;-62
2022/07/20 01:12:50;;;;;;;11.20;5.10;;;;;;;19.29;49.73;99388.83;106181;1273;97761;-63
2022/07/20 01:15:19;;;;;;;14.20;5.20;;;;;;;19.30;49.75;99390.88;106042;1274;108244;-65
2022/07/20 01:17:47;;;;;;;13.60;4.90;;;;;;;19.29;49.84;99386.27;106066;1274;97857;-64
2022/07/20 01:20:19;;;;;;;17.80;5.70;;;;;;;19.29;49.86;99387.17;106121;1273;97848;-63
2022/07/20 01:22:47;;;;;;;11.70;4.80;;;;;;;19.28;49.90;99384.71;106023;1273;111393;-65
2022/07/20 01:25:16;;;;;;;13.20;5.20;;;;;;;19.27;49.97;99385.59;106104;1273;96237;-65
2022/07/20 01:27:44;;;;;;;13.40;5.50;;;;;;;19.26;50.01;99387.12;106082;1273;107718;-63
2022/07/20 01:30:13;;;;;;;12.00;5.30;;;;;;;19.25;50.03;99384.55;106054;1273;97972;-65
2022/07/20 01:32:41;;;;;;;11.70;5.20;;;;;;;19.23;50.04;99386.33;106165;1274;97895;-65
2022/07/20 01:35:11;;;;;;;13.50;5.90;;;;;;;19.20;49.97;99384.15;106118;1273;111912;-64
2022/07/20 01:37:39;;;;;;;12.60;4.80;;;;;;;19.18;50.23;99385.80;106135;1274;97846;-64
2022/07/20 01:40:09;;;;;;;12.90;5.40;;;;;;;19.17;50.24;99387.45;106158;1274;107709;-65
2022/07/20 01:42:37;;;;;;;11.70;5.00;;;;;;;19.15;50.22;99383.77;106202;1274;98004;-64
2022/07/20 01:45:10;;;;;;;12.70;5.50;;;;;;;19.13;50.33;99383.02;106119;1273;95197;-63
2022/07/20 01:47:40;;;;;;;16.70;5.70;;;;;;;19.12;50.38;99381.75;106050;1274;111400;-65
2022/07/20 01:50:09;;;;;;;14.90;6.20;;;;;;;19.11;50.34;99383.30;106103;1274;97595;-64
2022/07/20 01:52:37;;;;;;;14.20;5.40;;;;;;;19.08;50.38;99387.36;106075;1274;108538;-64
2022/07/20 01:55:07;;;;;;;22.80;6.70;;;;;;;19.07;50.50;99384.55;106085;1274;97900;-63
2022/07/20 01:57:35;;;;;;;14.90;5.20;;;;;;;19.07;50.42;99383.37;106186;1274;97925;-63
2022/07/20 02:00:07;;;;;;;11.90;5.50;;;;;;;19.05;50.60;99383.90;106160;1274;111990;-66
2022/07/20 02:02:41;;;;;;;13.40;5.30;;;;;;;19.02;50.57;99382.77;106190;1274;97871;-62
2022/07/20 02:05:10;;;;;;;14.00;5.80;;;;;;;18.94;50.49;99381.89;106079;1273;107636;-67
2022/07/20 02:07:38;;;;;;;13.00;5.20;;;;;;;18.86;50.56;99379.09;106113;1274;95349;-64
2022/07/20 02:10:09;;;;;;;14.20;6.10;;;;;;;18.80;50.64;99379.92;106174;1273;97851;-65
2022/07/20 02:12:39;;;;;;;14.40;5.30;;;;;;;18.68;50.24;99381.46;106120;1274;111926;-65
2022/07/20 02:15:10;;;;;;;14.40;6.00;;;;;;;18.53;50.25;99380.49;106236;1273;97524;-65
2022/07/20 02:17:38;;;;;;;17.20;5.80;;;;;;;18.35;50.39;99381.90;106093;1273;108350;-64
2022/07/20 02:20:07;;;;;;;18.80;6.10;;;;;;;18.18;50.51;99376.78;106160;1273;97858;-66
2022/07/20 02:22:36;;;;;;;15.60;6.10;;;;;;;18.01;50.95;99378.48;106192;1271;95367;-64
2022/07/20 02:25:05;;;;;;;16.50;5.90;;;;;;;17.85;50.92;99381.79;106177;1273;113483;-64
2022/07/20 02:27:33;;;;;;;14.40;5.90;;;;;;;17.73;51.15;99379.20;106135;1274;98004;-66
2022/07/20 02:30:01;;;;;;;14.60;6.30;;;;;;;17.63;50.97;99386.92;106163;1274;107821;-65
2022/07/20 02:32:29;;;;;;;14.20;6.20;;;;;;;17.53;51.28;99386.10;106187;1274;98632;-65
2022/07/20 02:34:57;;;;;;;15.30;6.20;;;;;;;17.43;51.42;99385.85;106214;1274;97956;-64
2022/07/20 02:37:26;;;;;;;13.90;6.10;;;;;;;17.34;51.57;99389.23;106203;1274;111875;-66
2022/07/20 02:39:55;;;;;;;15.50;6.30;;;;;;;17.26;51.89;99392.60;106195;1274;97897;-65
2022/07/20 02:42:23;;;;;;;14.80;5.80;;;;;;;17.25;52.24;99391.98;106088;1274;108874;-64
2022/07/20 02:44:52;;;;;;;17.70;6.00;;;;;;;17.27;52.27;99392.38;106110;1274;97879;-64
2022/07/20 02:47:22;;;;;;;16.60;6.30;;;;;;;17.27;52.13;99391.50;106152;1274;95266;-63
2022/07/20 02:49:51;;;;;;;15.20;6.10;;;;;;;17.24;52.28;99395.73;106121;1273;111556;-64
2022/07/20 02:52:19;;;;;;;16.40;6.30;;;;;;;17.23;52.51;99396.35;106187;1274;97946;-65
2022/07/20 02:54:47;;;;;;;14.50;6.00;;;;;;;17.22;52.38;99396.24;106131;1274;108045;-64
2022/07/20 02:57:15;;;;;;;16.00;6.30;;;;;;;17.20;52.17;99402.59;106038;1273;98166;-66
2022/07/20 02:59:44;;;;;;;14.30;6.10;;;;;;;17.11;52.22;99407.34;106125;1274;95210;-65
2022/07/20 03:02:12;;;;;;;12.90;5.90;;;;;;;17.05;52.41;99409.16;106089;1274;111748;-64
2022/07/20 03:04:41;;;;;;;15.30;6.30;;;;;;;17.01;52.55;99415.05;106133;1274;95473;-64
2022/07/20 03:07:10;;;;;;;15.10;5.90;;;;;;;16.98;52.69;99410.86;106099;1274;108320;-64
2022/07/20 03:09:39;;;;;;;17.10;6.50;;;;;;;16.94;52.60;99411.40;106027;1274;98003;-64
2022/07/20 03:12:10;;;;;;;14.70;6.20;;;;;;;16.90;52.97;99410.48;106200;1274;97900;-64
2022/07/20 03:14:38;;;;;;;16.20;5.60;;;;;;;16.87;53.03;99417.03;106066;1273;111946;-65
2022/07/20 03:17:06;;;;;;;14.90;6.20;;;;;;;16.86;53.37;99419.48;106062;1273;95201;-65
2022/07/20 03:19:34;;;;;;;17.50;6.80;;;;;;;16.91;53.65;99419.77;106100;1274;107714;-64
2022/07/20 03:22:03;;;;;;;16.90;6.40;;;;;;;16.95;53.56;99415.19;106081;1274;95381;-65
2022/07/20 03:24:31;;;;;;;18.60;6.60;;;;;;;16.98;53.39;99415.34;106184;1274;95572;-65
2022/07/20 03:26:59;;;;;;;17.20;6.10;;;;;;;16.98;53.82;99414.10;106077;1274;112005;-65
2022/07/20 03:29:27;;;;;;;15.60;6.30;;;;;;;16.99;53.68;99414.17;106187;1274;96349;-65
2022/07/20 03:31:56;;;;;;;14.60;5.90;;;;;;;17.01;53.91;99414.38;105971;1274;107407;-64
2022/07/20 03:34:24;;;;;;;15.40;6.40;;;;;;;17.02;53.94;99416.75;105974;1274;97979;-64
2022/07/20 03:36:52;;;;;;;15.00;6.80;;;;;;;17.04;53.93;99416.75;105894;1274;97970;-64
2022/07/20 03:39:20;;;;;;;16.70;6.00;;;;;;;17.05;53.90;99416.12;105956;1274;111420;-64
2022/07/20 03:41:48;;;;;;;14.70;5.80;;;;;;;17.05;54.33;99422.06;106056;1274;97983;-64
2022/07/20 03:44:16;;;;;;;14.20;6.10;;;;;;;17.08;54.31;99424.65;106096;1274;108420;-64
2022/07/20 03:46:44;;;;;;;15.30;6.00;;;;;;;17.12;54.27;99431.10;106027;1274;96325;-64
2022/07/20 03:49:12;;;;;;;15.70;6.70;;;;;;;17.15;54.28;99426.34;105809;1274;495933;-64
2022/07/20 03:51:40;;;;;;;15.50;6.40;;;;;;;17.17;54.50;99426.14;106110;1274;112106;-66
2022/07/20 03:54:08;;;;;;;13.70;5.90;;;;;;;17.18;54.35;99426.36;106080;1273;95188;-65
2022/07/20 03:56:40;;;;;;;15.20;6.10;;;;;;;17.20;54.38;99427.94;106115;1274;108358;-64
2022/07/20 03:59:10;;;;;;;14.80;6.10;;;;;;;17.22;54.60;99429.02;106115;1274;98030;-64
2022/07/20 04:01:39;;;;;;;14.50;5.60;;;;;;;17.26;54.71;99430.46;106062;1274;97834;-69
2022/07/20 04:04:07;;;;;;;13.10;5.20;;;;;;;17.31;54.78;99428.95;106112;1274;111617;-65
2022/07/20 04:06:38;;;;;;;15.70;5.60;;;;;;;17.35;55.04;99428.01;106129;1271;95405;-65
2022/07/20 04:09:06;;;;;;;14.20;5.60;;;;;;;17.39;54.84;99427.22;106086;1274;108342;-64
2022/07/20 04:11:35;;;;;;;11.60;5.40;;;;;;;17.44;54.97;99433.04;106104;1274;96232;-63
2022/07/20 04:14:04;;;;;;;15.40;5.70;;;;;;;17.51;55.18;99438.45;106040;1274;99377;-64
2022/07/20 04:16:31;;;;;;;50.40;36.50;;;;;;;17.58;55.27;99438.56;106005;1273;112120;-64
2022/07/20 04:19:00;;;;;;;21.20;9.40;;;;;;;17.64;55.31;99440.13;106054;1274;97866;-65
2022/07/20 04:21:28;;;;;;;21.20;7.70;;;;;;;17.69;55.15;99436.36;106023;1274;108237;-65
2022/07/20 04:23:56;;;;;;;17.10;6.60;;;;;;;17.75;55.26;99442.13;106074;1273;97966;-65
2022/07/20 04:26:24;;;;;;;14.70;6.20;;;;;;;17.80;55.36;99443.21;106173;1274;98039;-68
2022/07/20 04:28:51;;;;;;;13.20;5.30;;;;;;;17.86;55.43;99447.84;106112;1274;112048;-63
2022/07/20 04:31:20;;;;;;;15.70;6.40;;;;;;;17.93;55.38;99451.91;106137;1274;97980;-65
2022/07/20 04:33:48;;;;;;;14.80;6.30;;;;;;;18.00;55.50;99454.11;106091;1274;108292;-64
2022/07/20 04:36:16;;;;;;;16.40;6.00;;;;;;;18.05;55.42;99452.33;106057;1274;98958;-64
2022/07/20 04:38:44;;;;;;;13.00;5.50;;;;;;;18.10;55.50;99452.73;106128;1274;97757;-64
2022/07/20 04:41:12;;;;;;;19.20;7.50;;;;;;;18.16;55.47;99454.83;106113;1274;111106;-66
2022/07/20 04:43:40;;;;;;;15.50;6.40;;;;;;;18.22;55.60;99449.45;106026;1273;97860;-65
2022/07/20 04:46:08;;;;;;;14.80;6.30;;;;;;;18.29;55.64;99452.20;106020;1274;108319;-64
2022/07/20 04:48:36;;;;;;;14.80;5.90;;;;;;;18.35;55.68;99452.45;106132;1274;97936;-66
2022/07/20 04:51:05;;;;;;;13.70;5.10;;;;;;;18.43;55.54;99453.15;106190;1274;97870;-65
2022/07/20 04:53:32;;;;;;;15.10;5.60;;;;;;;18.50;55.63;99454.78;106116;1274;112047;-66
2022/07/20 04:56:01;;;;;;;13.10;5.30;;;;;;;18.57;55.91;99453.13;106201;1274;97896;-66
2022/07/20 04:58:31;;;;;;;17.20;5.70;;;;;;;18.65;55.93;99449.02;106160;1274;108269;-69
2022/07/20 05:00:59;;;;;;;20.50;6.40;;;;;;;18.72;56.03;99449.19;106179;1274;97941;-69
2022/07/20 05:03:27;;;;;;;13.50;5.50;;;;;;;18.80;55.95;99450.05;106058;1274;97740;-67
2022/07/20 05:05:55;;;;;;;15.10;5.60;;;;;;;18.85;55.83;99447.27;106081;1274;111401;-65
2022/07/20 05:08:23;;;;;;;15.00;5.70;;;;;;;18.94;55.89;99451.86;106163;1274;96201;-64
2022/07/20 05:10:51;;;;;;;13.30;5.80;;;;;;;19.00;55.95;99451.92;106122;1274;108336;-66
2022/07/20 05:13:19;;;;;;;15.40;5.80;;;;;;;19.07;55.88;99454.10;106209;1274;97998;-65
2022/07/20 05:15:47;;;;;;;14.10;5.40;;;;;;;19.14;55.94;99454.50;106073;1273;98397;-67
2022/07/20 05:18:16;;;;;;;16.60;6.00;;;;;;;19.19;56.09;99458.06;106101;1274;111556;-68
2022/07/20 05:20:44;;;;;;;15.10;5.90;;;;;;;19.26;56.24;99457.01;106079;1274;95177;-67
2022/07/20 05:23:13;;;;;;;18.10;6.20;;;;;;;19.33;56.22;99458.13;106025;1274;107735;-66
2022/07/20 05:25:41;;;;;;;16.70;6.90;;;;;;;19.40;56.57;99460.34;106016;1274;98083;-67
2022/07/20 05:28:12;;;;;;;15.40;5.60;;;;;;;19.45;56.59;99461.20;106070;1274;97836;-66
2022/07/20 05:30:41;;;;;;;13.70;6.20;;;;;;;19.51;56.55;99463.99;105946;1274;113050;-68
2022/07/20 05:33:09;;;;;;;15.10;5.40;;;;;;;19.57;56.58;99463.98;105932;1273;95669;-69
2022/07/20 05:35:37;;;;;;;15.00;6.10;;;;;;;19.62;56.71;99462.27;105962;1274;107734;-70
2022/07/20 05:38:05;;;;;;;14.80;6.20;;;;;;;19.68;56.97;99464.42;106049;1274;95261;-69
2022/07/20 05:40:34;;;;;;;15.00;5.30;;;;;;;19.72;57.00;99462.90;106068;1274;97944;-69
2022/07/20 05:43:01;;;;;;;14.40;5.30;;;;;;;19.76;56.76;99460.27;106055;1273;112024;-68
2022/07/20 05:45:29;;;;;;;15.30;5.50;;;;;;;19.83;56.84;99461.55;106053;1274;97699;-72
2022/07/20 05:47:57;;;;;;;12.70;4.60;;;;;;;19.88;56.77;99456.20;105954;1274;107705;-72
2022/07/20 05:50:25;;;;;;;17.00;5.20;;;;;;;19.95;56.62;99463.65;105918;1274;97877;-74
2022/07/20 05:52:53;;;;;;;14.40;5.00;;;;;;;20.03;56.65;99466.89;105910;1274;98736;-69
2022/07/20 05:55:21;;;;;;;11.20;4.60;;;;;;;20.10;56.69;99463.98;107932;1273;111594;-72
2022/07/20 05:57:49;;;;;;;12.90;5.10;;;;;;;20.18;56.66;99461.73;106682;1273;97834;-70
2022/07/20 06:00:17;;;;;;;12.00;5.30;;;;;;;20.26;56.91;99464.33;105855;1274;107697;-70
2022/07/20 06:02:45;;;;;;;11.10;5.00;;;;;;;20.32;56.78;99466.52;105861;1274;97855;-71
2022/07/20 06:05:13;;;;;;;15.30;5.50;;;;;;;20.38;56.78;99465.50;106126;1274;97896;-70
2022/07/20 06:07:40;;;;;;;12.10;5.40;;;;;;;20.46;56.67;99471.48;106246;1274;111369;-71
2022/07/20 06:10:13;;;;;;;10.60;5.40;;;;;;;20.55;56.65;99467.73;106187;1273;97872;-74
2022/07/20 06:12:41;;;;;;;10.60;4.70;;;;;;;20.63;56.65;99472.77;106269;1274;107489;-72
2022/07/20 06:15:10;;;;;;;13.80;4.60;;;;;;;20.72;56.68;99470.02;106216;1274;97854;-72
2022/07/20 06:17:40;;;;;;;14.80;5.20;;;;;;;20.81;56.79;99470.48;106313;1274;97982;-71
2022/07/20 06:20:13;;;;;;;11.50;4.50;;;;;;;20.90;56.80;99469.37;106234;1274;111378;-68
2022/07/20 06:22:43;;;;;;;13.50;4.90;;;;;;;21.01;56.97;99469.44;106208;1274;97953;-67
2022/07/20 06:25:13;;;;;;;13.50;4.70;;;;;;;21.15;57.03;99470.41;106184;1274;108968;-69
2022/07/20 06:27:42;;;;;;;14.40;5.00;;;;;;;21.36;56.80;99468.02;106106;1274;97952;-70
2022/07/20 06:30:12;;;;;;;13.00;5.30;;;;;;;21.64;56.68;99464.95;106204;1274;95169;-70
2022/07/20 06:32:43;;;;;;;;;;;;;;;21.93;56.65;99465.16;106144;1274;111095;-68
2022/07/20 06:35:11;;;;;;;12.80;4.90;;;;;;;22.18;56.19;99464.86;106115;1274;98096;-69
2022/07/20 06:37:39;;;;;;;12.60;4.20;;;;;;;22.49;56.34;99460.16;106052;1273;107763;-69
2022/07/20 06:40:09;;;;;;;11.40;4.80;;;;;;;22.73;56.42;99459.27;106073;1274;97960;-69
2022/07/20 06:42:37;;;;;;;13.80;5.00;;;;;;;22.83;56.38;99464.16;106147;1273;97981;-71
2022/07/20 06:45:05;;;;;;;13.50;4.60;;;;;;;22.91;56.54;99460.71;106054;1274;111550;-70
2022/07/20 06:47:34;;;;;;;14.20;5.30;;;;;;;22.98;56.28;99461.49;106094;1273;97873;-72
2022/07/20 06:50:04;;;;;;;14.80;5.10;;;;;;;23.07;56.21;99460.55;106048;1274;108503;-72
2022/07/20 06:52:34;;;;;;;20.90;5.70;;;;;;;23.15;56.12;99464.90;106071;1274;95306;-72
2022/07/20 06:55:05;;;;;;;16.50;5.30;;;;;;;23.24;56.05;99461.22;106112;1274;98532;-71
2022/07/20 06:57:33;;;;;;;24.80;5.40;;;;;;;23.31;55.89;99461.45;106206;1274;111199;-71
2022/07/20 07:00:02;;;;;;;15.80;4.90;;;;;;;23.38;55.92;99460.65;106121;1274;97936;-71
2022/07/20 07:02:30;;;;;;;15.50;5.00;;;;;;;23.43;55.82;99462.94;106120;1274;107797;-70
2022/07/20 07:04:58;;;;;;;15.40;5.20;;;;;;;23.52;55.69;99460.22;106087;1273;97991;-71
2022/07/20 07:07:26;;;;;;;13.20;5.10;;;;;;;23.63;55.65;99460.98;106194;1274;98007;-69
2022/07/20 07:09:54;;;;;;;18.30;5.20;;;;;;;23.81;55.48;99458.33;106182;1274;111328;-68
2022/07/20 07:12:22;;;;;;;12.20;4.70;;;;;;;24.04;55.16;99458.84;106092;1274;97865;-69
2022/07/20 07:14:50;;;;;;;15.80;5.10;;;;;;;24.31;55.24;99463.69;106059;1274;107735;-70
2022/07/20 07:17:23;;;;;;;13.80;5.00;;;;;;;24.62;55.09;99464.31;106035;1274;98651;-70
2022/07/20 07:19:51;;;;;;;12.30;4.90;;;;;;;24.92;55.06;99462.35;105993;1274;97821;-70
2022/07/20 07:22:20;;;;;;;13.70;5.50;;;;;;;25.24;54.92;99463.27;106101;1274;111374;-69
2022/07/20 07:24:48;;;;;;;12.50;4.70;;;;;;;25.58;55.08;99465.67;106159;1274;95653;-70
2022/07/20 07:27:16;;;;;;;16.80;5.30;;;;;;;25.92;54.90;99467.23;106168;1273;107788;-71
2022/07/20 07:29:44;;;;;;;11.50;4.10;;;;;;;26.30;54.73;99468.45;106157;1274;97972;-72
2022/07/20 07:32:12;;;;;;;14.70;5.50;;;;;;;26.64;54.15;99467.90;106219;1274;97886;-71
2022/07/20 07:34:41;;;;;;;14.70;5.10;;;;;;;26.97;54.35;99467.02;106198;1274;111365;-75
2022/07/20 07:37:08;;;;;;;13.80;5.50;;;;;;;27.36;54.17;99465.60;106149;1273;97809;-70
2022/07/20 07:39:37;;;;;;;10.00;4.80;;;;;;;27.89;53.98;99463.95;106039;1274;107734;-71
2022/07/20 07:42:05;;;;;;;14.00;4.80;;;;;;;28.43;53.72;99462.33;106201;1274;95293;-70
2022/07/20 07:44:37;;;;;;;;;;;;;;;28.93;53.34;99462.91;106182;1274;97966;-70
2022/07/20 07:47:06;;;;;;;15.30;5.70;;;;;;;29.36;52.83;99461.66;106126;1274;113561;-70
2022/07/20 07:49:34;;;;;;;15.60;5.10;;;;;;;29.87;52.80;99464.58;106084;1277;99154;-71
2022/07/20 07:52:02;;;;;;;12.10;5.30;;;;;;;30.63;52.37;99464.50;106017;1277;107729;-71
2022/07/20 07:54:30;;;;;;;15.10;5.00;;;;;;;31.60;51.68;99456.94;106205;1274;96406;-72
2022/07/20 07:56:58;;;;;;;15.10;5.30;;;;;;;32.59;51.34;99458.06;106223;1274;95435;-71
2022/07/20 07:59:26;;;;;;;9.90;4.60;;;;;;;33.40;50.92;99458.41;106170;1274;111410;-71
2022/07/20 08:02:01;;;;;;;12.50;4.60;;;;;;;34.34;50.64;99464.10;106103;1274;97954;-71
2022/07/20 08:04:30;;;;;;;9.70;4.60;;;;;;;35.12;50.12;99464.40;106101;1274;107759;-72
2022/07/20 08:06:58;;;;;;;10.40;4.30;;;;;;;35.86;49.82;99457.52;106093;1274;97923;-70
2022/07/20 08:09:26;;;;;;;11.50;5.30;;;;;;;36.62;49.35;99455.20;106108;1274;98213;-70
2022/07/20 08:11:54;;;;;;;15.40;5.00;;;;;;;37.31;48.50;99457.49;106178;1274;111141;-67
2022/07/20 08:14:21;;;;;;;12.50;4.80;;;;;;;37.70;47.90;99455.67;106104;1274;97746;-65
2022/07/20 08:16:49;;;;;;;14.40;4.70;;;;;;;38.14;47.63;99455.45;105989;1275;109090;-67
2022/07/20 08:19:18;;;;;;;10.80;4.50;;;;;;;38.62;47.20;99457.55;106088;1274;97976;-65
2022/07/20 08:21:45;;;;;;;9.20;4.80;;;;;;;39.08;46.62;99454.98;106153;1274;95282;-65
2022/07/20 08:24:16;;;;;;;8.50;4.40;;;;;;;39.35;45.66;99451.95;106139;1274;112129;-64
2022/07/20 08:26:44;;;;;;;9.30;4.70;;;;;;;39.67;45.27;99453.11;106257;1274;98586;-65
2022/07/20 08:29:13;;;;;;;10.50;4.80;;;;;;;39.96;44.41;99451.77;106135;1274;109897;-65
2022/07/20 08:31:41;;;;;;;11.30;4.60;;;;;;;40.26;43.92;99450.05;106101;1274;97895;-66
2022/07/20 08:34:10;;;;;;;11.20;4.70;;;;;;;40.54;43.62;99450.30;106111;1274;97988;-66
2022/07/20 08:36:38;;;;;;;10.90;4.20;;;;;;;40.52;42.61;99451.11;106098;1274;112582;-65
2022/07/20 08:39:07;;;;;;;9.20;4.70;;;;;;;40.49;42.11;99448.30;106087;1274;98378;-65
2022/07/20 08:41:35;;;;;;;9.20;4.40;;;;;;;40.78;41.59;99450.20;106171;1274;108282;-65
2022/07/20 08:44:03;;;;;;;9.70;4.60;;;;;;;41.12;40.68;99451.27;106212;1275;97892;-67
2022/07/20 08:46:34;;;;;;;11.60;4.60;;;;;;;41.16;40.09;99449.70;106234;1274;97861;-66
2022/07/20 08:49:03;;;;;;;11.40;4.80;;;;;;;41.28;39.70;99451.65;106201;1274;111092;-66
2022/07/20 08:51:31;;;;;;;9.40;4.10;;;;;;;41.51;39.07;99451.20;106120;1274;97723;-66
2022/07/20 08:53:59;;;;;;;15.70;5.00;;;;;;;41.59;38.54;99449.89;106082;1274;108658;-67
2022/07/20 08:56:29;;;;;;;12.00;4.60;;;;;;;41.68;38.13;99451.00;105995;1274;95356;-66
2022/07/20 08:58:57;;;;;;;9.50;4.00;;;;;;;41.71;37.49;99445.52;106108;1274;97881;-67
2022/07/20 09:01:27;;;;;;;14.50;4.20;;;;;;;41.86;37.02;99442.76;106116;1274;112211;-66
2022/07/20 09:04:10;;;;;;;14.40;4.90;;;;;;;42.22;36.60;99444.16;106054;1274;97916;-66
2022/07/20 09:06:47;;;;;;;11.60;4.40;;;;;;;42.50;36.04;99441.45;106096;1274;107845;-67
2022/07/20 09:09:17;;;;;;;6.90;4.40;;;;;;;42.61;35.62;99441.02;106098;1274;98541;-66
2022/07/20 09:11:46;;;;;;;10.00;4.10;;;;;;;42.70;35.26;99442.53;106068;1274;97435;-66
2022/07/20 09:14:35;;;;;;;10.20;4.30;;;;;;;42.80;34.64;99446.14;106053;1274;111718;-66
2022/07/20 09:17:16;;;;;;;10.50;4.70;;;;;;;42.95;34.26;99443.55;105977;1273;98383;-66
2022/07/20 09:20:04;;;;;;;14.10;4.40;;;;;;;43.10;33.76;99439.41;106020;1274;108072;-65
2022/07/20 09:22:37;;;;;;;13.90;4.40;;;;;;;42.89;33.06;99443.06;106174;1274;97973;-66
2022/07/20 09:25:09;;;;;;;8.30;4.10;;;;;;;42.81;32.99;99440.41;106088;1274;97911;-65
2022/07/20 09:27:38;;;;;;;10.40;5.00;;;;;;;42.87;32.63;99432.06;105991;1274;112027;-65
2022/07/20 09:30:17;;;;;;;11.30;4.10;;;;;;;42.68;32.25;99432.58;106051;1274;98581;-63
2022/07/20 09:33:01;;;;;;;13.40;4.50;;;;;;;42.51;31.85;99427.86;106132;1274;107512;-66
2022/07/20 09:35:32;;;;;;;11.00;4.30;;;;;;;42.27;31.47;99430.36;106064;1274;96779;-66
2022/07/20 09:38:06;;;;;;;10.50;4.30;;;;;;;42.16;31.11;99430.38;106080;1274;95472;-66
2022/07/20 09:40:43;;;;;;;10.80;4.10;;;;;;;42.19;30.88;99427.40;106170;1275;111499;-67
2022/07/20 09:43:27;;;;;;;8.00;4.00;;;;;;;42.06;30.49;99427.19;106142;1274;95690;-68
2022/07/20 09:46:09;;;;;;;11.30;4.00;;;;;;;41.88;30.08;99428.63;106181;1274;107721;-67
2022/07/20 09:48:56;;;;;;;10.00;4.40;;;;;;;41.88;29.98;99425.38;106109;1274;97911;-67
2022/07/20 09:51:37;;;;;;;17.10;4.40;;;;;;;42.01;29.68;99430.59;106078;1274;98590;-65
2022/07/20 09:54:17;;;;;;;7.70;4.20;;;;;;;41.88;29.56;99427.13;106071;1273;111682;-73
2022/07/20 09:56:48;;;;;;;11.00;4.00;;;;;;;41.75;29.17;99423.55;105982;1274;98031;-72
2022/07/20 09:59:18;;;;;;;11.40;4.30;;;;;;;41.62;29.11;99420.90;106124;1274;106903;-67
2022/07/20 10:01:52;;;;;;;7.40;3.90;;;;;;;41.45;28.73;99424.26;106194;1274;97866;-68
2022/07/20 10:04:23;;;;;;;11.00;4.80;;;;;;;41.04;28.41;99416.01;106165;1274;97914;-69
2022/07/20 10:06:52;;;;;;;8.10;3.80;;;;;;;40.66;28.30;99422.23;106060;1275;112052;-68
2022/07/20 10:09:20;;;;;;;10.10;4.30;;;;;;;40.18;28.07;99423.33;106173;1274;97676;-66
2022/07/20 10:11:48;;;;;;;8.20;4.40;;;;;;;39.77;28.18;99418.42;106165;1274;108807;-66
2022/07/20 10:14:19;;;;;;;11.00;4.80;;;;;;;39.37;27.81;99417.42;106180;1273;98561;-70
2022/07/20 10:16:51;;;;;;;8.70;3.90;;;;;;;38.76;27.90;99412.55;106171;1274;97883;-68
2022/07/20 10:19:41;;;;;;;11.30;4.30;;;;;;;38.21;27.44;99414.42;106044;1274;112011;-68
2022/07/20 10:22:09;;;;;;;15.40;5.00;;;;;;;37.76;27.33;99410.93;106090;1274;98583;-67
2022/07/20 10:24:38;;;;;;;8.60;4.10;;;;;;;37.29;27.33;99412.34;106036;1274;108339;-67
2022/07/20 10:27:08;;;;;;;12.80;4.30;;;;;;;36.84;26.97;99414.71;106058;1274;97930;-66
2022/07/20 10:29:45;;;;;;;9.10;4.30;;;;;;;36.14;26.64;99412.29;106049;1273;97956;-66
2022/07/20 10:32:22;;;;;;;9.80;4.50;;;;;;;35.49;26.67;99414.89;106085;1274;112495;-67
2022/07/20 10:34:59;;;;;;;10.10;4.20;;;;;;;35.08;26.86;99414.02;106067;1274;98076;-67
2022/07/20 10:37:42;;;;;;;10.10;4.50;;;;;;;34.78;26.79;99412.01;106062;1274;107652;-66
2022/07/20 10:40:19;;;;;;;8.70;4.20;;;;;;;34.60;26.66;99411.70;107949;1274;96037;-66
2022/07/20 10:42:51;;;;;;;8.50;3.60;;;;;;;34.42;26.79;99416.75;107608;1273;96328;-66
2022/07/20 10:45:28;;;;;;;9.50;4.50;;;;;;;34.24;26.91;99414.86;107159;1273;111158;-66
2022/07/20 10:48:11;;;;;;;8.80;4.30;;;;;;;34.09;26.94;99415.81;107039;1274;98001;-66
2022/07/20 10:50:51;;;;;;;10.50;4.00;;;;;;;33.88;26.87;99418.09;105951;1273;108388;-67
2022/07/20 10:53:23;;;;;;;10.40;3.80;;;;;;;33.68;27.09;99415.39;106153;1274;95203;-65
2022/07/20 10:55:58;;;;;;;10.80;4.30;;;;;;;33.53;26.94;99412.35;106223;1274;97847;-67
2022/07/20 10:58:31;;;;;;;;;;;;;;;33.43;26.97;99409.18;106160;1273;111002;-68
2022/07/20 11:01:03;;;;;;;12.70;4.00;;;;;;;33.37;27.08;99409.80;106170;1273;98382;-67
2022/07/20 11:03:37;;;;;;;9.30;3.50;;;;;;;33.36;26.96;99408.79;106150;1274;108620;-66
2022/07/20 11:06:13;;;;;;;8.70;3.80;;;;;;;33.33;27.07;99407.97;106109;1274;97790;-66
2022/07/20 11:08:50;;;;;;;7.30;3.90;;;;;;;33.22;27.05;99409.40;106062;1273;96334;-66
2022/07/20 11:11:25;;;;;;;12.70;4.50;;;;;;;32.92;26.94;99405.83;106101;1274;111847;-66
2022/07/20 11:13:55;;;;;;;;;;;;;;;32.55;27.10;99403.15;106172;1274;95191;-66
2022/07/20 11:16:27;;;;;;;7.40;3.50;;;;;;;32.34;27.18;99404.45;106169;1274;108587;-66
2022/07/20 11:18:57;;;;;;;8.90;3.80;;;;;;;32.28;27.55;99403.56;106182;1274;95340;-66
2022/07/20 11:21:39;;;;;;;8.00;3.90;;;;;;;32.31;27.55;99394.86;106168;1274;99026;-65
2022/07/20 11:24:22;;;;;;;6.20;3.30;;;;;;;32.31;27.30;99397.88;106199;1273;111657;-65
2022/07/20 11:26:53;;;;;;;6.00;3.20;;;;;;;32.26;27.38;99397.16;106122;1273;97769;-66
2022/07/20 11:29:24;;;;;;;6.20;3.50;;;;;;;32.27;27.70;99396.45;106100;1273;107352;-67
2022/07/20 11:31:52;;;;;;;8.20;3.60;;;;;;;32.23;27.36;99397.21;106148;1274;97893;-67